createdAt,value
2023-05-19T00:00:21.716Z,54.03
2023-05-19T00:02:49.680Z,54.60
2023-05-19T00:05:18.524Z,52.71
2023-05-19T00:07:46.330Z,52.92
2023-05-19T00:10:14.588Z,54.07
2023-05-19T00:12:42.247Z,51.75
2023-05-19T00:15:10.588Z,54.64
2023-05-19T00:17:42.419Z,53.05
2023-05-19T00:20:11.998Z,51.71
2023-05-19T00:22:40.314Z,52.00
2023-05-19T00:25:08.339Z,52.59
2023-05-19T00:27:36.019Z,54.13
2023-05-19T00:30:03.637Z,57.33
2023-05-19T00:32:31.314Z,64.41
2023-05-19T00:35:00.434Z,59.09
2023-05-19T00:37:28.105Z,56.11
2023-05-19T00:39:55.761Z,52.91
2023-05-19T00:42:24.189Z,55.04
2023-05-19T00:44:51.898Z,56.65
2023-05-19T00:47:22.074Z,51.22
2023-05-19T00:49:51.681Z,52.17
2023-05-19T00:52:20.713Z,52.30
2023-05-19T00:54:48.451Z,52.63
2023-05-19T00:57:16.387Z,53.76
2023-05-19T00:59:44.020Z,54.83
2023-05-19T01:02:11.869Z,52.93
2023-05-19T01:04:41.842Z,50.74
2023-05-19T01:07:10.432Z,54.47
2023-05-19T01:09:39.512Z,58.92
2023-05-19T01:12:09.437Z,56.19
2023-05-19T01:14:37.089Z,56.51
2023-05-19T01:17:05.721Z,56.40
2023-05-19T01:19:38.830Z,56.47
2023-05-19T01:22:14.287Z,53.46
2023-05-19T01:25:06.963Z,53.73
2023-05-19T01:27:42.948Z,54.24
2023-05-19T01:30:22.278Z,53.13
2023-05-19T01:32:50.163Z,52.08
2023-05-19T01:35:17.868Z,51.82
2023-05-19T01:37:47.117Z,51.89
2023-05-19T01:40:16.570Z,52.03
2023-05-19T01:42:45.497Z,54.76
2023-05-19T01:45:13.192Z,53.14
2023-05-19T01:47:44.130Z,51.97
2023-05-19T01:50:12.099Z,51.27
2023-05-19T01:52:39.767Z,51.31
2023-05-19T01:55:11.427Z,52.36
2023-05-19T01:57:42.160Z,53.40
2023-05-19T02:00:11.661Z,55.36
2023-05-19T02:02:45.007Z,54.62
2023-05-19T02:05:15.194Z,54.42
2023-05-19T02:07:43.881Z,54.78
2023-05-19T02:10:12.087Z,59.01
2023-05-19T02:12:40.493Z,52.98
2023-05-19T02:15:10.666Z,53.65
2023-05-19T02:17:41.353Z,54.35
2023-05-19T02:20:12.508Z,50.93
2023-05-19T02:22:40.460Z,50.34
2023-05-19T02:25:08.466Z,51.24
2023-05-19T02:27:37.866Z,51.39
2023-05-19T02:30:05.848Z,51.78
2023-05-19T02:32:34.339Z,55.86
2023-05-19T02:35:02.130Z,53.00
2023-05-19T02:37:32.507Z,53.08
2023-05-19T02:40:00.164Z,52.62
2023-05-19T02:42:27.858Z,53.47
2023-05-19T02:44:55.699Z,53.22
2023-05-19T02:47:23.395Z,54.44
2023-05-19T02:49:51.144Z,56.25
2023-05-19T02:52:18.808Z,56.36
2023-05-19T02:54:48.289Z,58.08
2023-05-19T02:57:15.992Z,54.28
2023-05-19T02:59:43.879Z,53.62
2023-05-19T03:02:11.798Z,51.48
2023-05-19T03:04:41.785Z,51.46
2023-05-19T03:07:10.952Z,51.85
2023-05-19T03:09:38.769Z,50.48
2023-05-19T03:12:08.280Z,55.14
2023-05-19T03:14:37.713Z,54.35
2023-05-19T03:17:07.556Z,51.88
2023-05-19T03:19:35.341Z,51.99
2023-05-19T03:22:02.973Z,52.75
2023-05-19T03:24:30.814Z,53.58
2023-05-19T03:26:58.683Z,54.64
2023-05-19T03:29:27.738Z,54.91
2023-05-19T03:31:55.428Z,52.32
2023-05-19T03:34:23.456Z,53.08
2023-05-19T03:36:51.717Z,53.25
2023-05-19T03:39:21.276Z,51.83
2023-05-19T03:41:49.794Z,51.05
2023-05-19T03:44:17.472Z,53.17
2023-05-19T03:46:47.370Z,54.93
2023-05-19T03:49:44.260Z,54.61
2023-05-19T03:52:50.097Z,51.92
2023-05-19T03:55:30.574Z,51.60
2023-05-19T03:57:58.319Z,52.54
2023-05-19T04:00:26.179Z,52.42
2023-05-19T04:02:55.283Z,53.09
2023-05-19T04:05:23.007Z,54.44
2023-05-19T04:07:51.022Z,50.08
2023-05-19T04:10:18.888Z,51.51
2023-05-19T04:12:48.007Z,49.58
2023-05-19T04:15:16.923Z,50.58
2023-05-19T04:17:44.641Z,51.46
2023-05-19T04:20:14.328Z,54.41
2023-05-19T04:22:41.992Z,52.83
2023-05-19T04:25:10.191Z,49.28
2023-05-19T04:27:39.225Z,50.32
2023-05-19T04:30:07.989Z,49.67
2023-05-19T04:32:37.362Z,54.20
2023-05-19T04:35:06.863Z,56.83
2023-05-19T04:37:38.330Z,51.87
2023-05-19T04:40:10.879Z,53.64
2023-05-19T04:42:41.259Z,58.41
2023-05-19T04:45:12.373Z,51.88
2023-05-19T04:47:42.788Z,51.29
2023-05-19T04:50:12.019Z,56.01
2023-05-19T04:52:42.836Z,52.09
2023-05-19T04:55:13.186Z,50.79
2023-05-19T04:57:41.704Z,51.82
2023-05-19T05:00:13.304Z,50.49
2023-05-19T05:02:57.536Z,48.36
2023-05-19T05:05:26.807Z,47.78
2023-05-19T05:07:56.245Z,53.78
2023-05-19T05:10:28.529Z,54.17
2023-05-19T05:12:56.520Z,52.24
2023-05-19T05:15:25.047Z,53.61
2023-05-19T05:17:53.418Z,50.80
2023-05-19T05:20:22.564Z,53.32
2023-05-19T05:22:50.529Z,50.83
2023-05-19T05:25:20.987Z,52.88
2023-05-19T05:27:49.793Z,53.23
2023-05-19T05:30:17.587Z,54.21
2023-05-19T05:32:48.130Z,56.38
2023-05-19T05:35:30.801Z,50.92
2023-05-19T05:37:59.383Z,54.46
2023-05-19T05:40:28.620Z,52.62
2023-05-19T05:42:58.869Z,52.15
2023-05-19T05:45:29.661Z,51.86
2023-05-19T05:47:58.728Z,49.68
2023-05-19T05:50:28.652Z,49.00
2023-05-19T05:52:56.930Z,51.29
2023-05-19T05:55:29.856Z,53.21
2023-05-19T05:58:02.067Z,52.69
2023-05-19T06:00:29.917Z,53.32
2023-05-19T06:02:59.132Z,50.02
2023-05-19T06:05:27.384Z,48.30
2023-05-19T06:07:55.903Z,45.55
2023-05-19T06:10:26.986Z,45.84
2023-05-19T06:12:57.455Z,49.74
2023-05-19T06:15:26.488Z,47.35
2023-05-19T06:18:11.850Z,48.31
2023-05-19T06:20:40.845Z,47.09
2023-05-19T06:23:09.362Z,47.34
2023-05-19T06:25:37.102Z,48.81
2023-05-19T06:28:07.788Z,47.54
2023-05-19T06:30:36.691Z,48.74
2023-05-19T06:33:17.988Z,51.54
2023-05-19T06:35:45.662Z,48.30
2023-05-19T06:38:13.598Z,45.95
2023-05-19T06:40:41.535Z,45.48
2023-05-19T06:43:10.757Z,44.16
2023-05-19T06:45:58.237Z,45.64
2023-05-19T06:48:29.593Z,46.64
2023-05-19T06:50:57.465Z,48.97
2023-05-19T06:53:25.846Z,48.25
2023-05-19T06:56:00.051Z,47.44
2023-05-19T06:58:33.312Z,48.87
2023-05-19T07:01:05.204Z,44.31
2023-05-19T07:03:42.377Z,41.52
2023-05-19T07:06:11.767Z,44.34
2023-05-19T07:08:39.513Z,46.09
2023-05-19T07:11:08.796Z,44.93
2023-05-19T07:13:37.901Z,43.56
2023-05-19T07:16:05.904Z,42.09
2023-05-19T07:18:34.318Z,43.79
2023-05-19T07:21:02.044Z,43.26
2023-05-19T07:23:32.434Z,40.84
2023-05-19T07:26:00.233Z,42.99
2023-05-19T07:28:27.939Z,39.87
2023-05-19T07:30:57.010Z,36.71
2023-05-19T07:33:24.720Z,37.35
2023-05-19T07:35:52.495Z,35.63
2023-05-19T07:38:20.152Z,32.53
2023-05-19T07:40:47.833Z,35.76
2023-05-19T07:43:15.584Z,34.81
2023-05-19T07:45:43.312Z,38.56
2023-05-19T07:48:12.558Z,37.49
2023-05-19T07:50:40.845Z,34.13
2023-05-19T07:53:09.605Z,34.14
2023-05-19T07:55:37.315Z,35.15
2023-05-19T07:58:04.966Z,36.14
2023-05-19T08:00:33.036Z,36.22
2023-05-19T08:03:01.812Z,31.83
2023-05-19T08:05:30.943Z,35.24
2023-05-19T08:07:58.781Z,37.79
2023-05-19T08:10:26.461Z,35.03
2023-05-19T08:12:54.370Z,36.53
2023-05-19T08:15:22.054Z,33.97
2023-05-19T08:17:50.024Z,34.45
2023-05-19T08:20:17.935Z,34.51
2023-05-19T08:22:46.943Z,32.94
2023-05-19T08:25:14.968Z,32.70
2023-05-19T08:27:42.649Z,33.13
2023-05-19T08:30:10.932Z,32.29
2023-05-19T08:32:38.695Z,32.98
2023-05-19T08:35:06.637Z,32.23
2023-05-19T08:37:37.037Z,30.95
2023-05-19T08:40:07.122Z,33.96
2023-05-19T08:42:34.856Z,33.97
2023-05-19T08:45:03.212Z,32.31
2023-05-19T08:47:31.082Z,31.34
2023-05-19T08:50:00.196Z,32.51
2023-05-19T08:52:29.099Z,31.24
2023-05-19T08:55:03.633Z,31.45
2023-05-19T08:57:34.130Z,30.24
2023-05-19T09:00:01.798Z,31.29
2023-05-19T09:02:29.526Z,29.43
2023-05-19T09:04:57.609Z,32.08
2023-05-19T09:07:26.779Z,30.22
2023-05-19T09:09:54.976Z,30.10
2023-05-19T09:12:22.654Z,29.62
2023-05-19T09:14:51.884Z,31.71
2023-05-19T09:17:19.853Z,29.50
2023-05-19T09:19:49.568Z,28.08
2023-05-19T09:22:19.112Z,31.89
2023-05-19T09:24:46.761Z,30.86
2023-05-19T09:27:15.508Z,32.35
2023-05-19T09:29:43.549Z,28.76
2023-05-19T09:32:12.642Z,28.64
2023-05-19T09:34:41.652Z,29.48
2023-05-19T09:37:09.436Z,28.42
2023-05-19T09:39:37.070Z,30.23
2023-05-19T09:42:05.601Z,29.51
2023-05-19T09:44:33.742Z,29.24
2023-05-19T09:47:02.175Z,29.00
2023-05-19T09:49:32.683Z,28.78
2023-05-19T09:52:00.776Z,27.36
2023-05-19T09:54:29.679Z,28.03
2023-05-19T09:57:00.873Z,29.17
2023-05-19T09:59:32.336Z,29.61
2023-05-19T10:02:02.200Z,30.77
2023-05-19T10:04:31.622Z,31.34
2023-05-19T10:07:00.394Z,29.41
2023-05-19T10:09:28.722Z,30.85
2023-05-19T10:11:56.695Z,30.70
2023-05-19T10:14:24.879Z,30.60
2023-05-19T10:16:52.892Z,30.10
2023-05-19T10:19:21.875Z,28.97
2023-05-19T10:21:51.435Z,27.61
2023-05-19T10:24:19.432Z,28.49
2023-05-19T10:26:48.308Z,26.97
2023-05-19T10:29:16.807Z,29.48
2023-05-19T10:31:46.512Z,28.99
2023-05-19T10:34:22.389Z,25.24
2023-05-19T10:36:53.972Z,28.24
2023-05-19T10:39:26.306Z,27.88
2023-05-19T10:41:55.493Z,28.90
2023-05-19T10:44:26.771Z,27.23
2023-05-19T10:46:56.742Z,26.23
2023-05-19T10:49:24.913Z,26.52
2023-05-19T10:51:55.155Z,27.40
2023-05-19T10:54:38.996Z,26.71
2023-05-19T10:57:07.063Z,27.11
2023-05-19T10:59:40.969Z,26.42
2023-05-19T11:02:10.954Z,26.20
2023-05-19T11:04:40.512Z,27.47
2023-05-19T11:07:11.345Z,28.57
2023-05-19T11:09:41.454Z,25.84
2023-05-19T11:12:10.562Z,27.11
2023-05-19T11:14:39.166Z,27.21
2023-05-19T11:17:07.897Z,27.11
2023-05-19T11:19:36.167Z,27.30
2023-05-19T11:22:11.284Z,27.37
2023-05-19T11:24:39.982Z,26.69
2023-05-19T11:27:24.260Z,25.73
2023-05-19T11:29:52.281Z,26.74
2023-05-19T11:32:21.412Z,26.85
2023-05-19T11:34:49.422Z,25.75
2023-05-19T11:37:20.568Z,27.53
2023-05-19T11:39:48.558Z,27.77
2023-05-19T11:42:16.376Z,25.24
2023-05-19T11:44:46.152Z,27.46
2023-05-19T11:47:14.035Z,26.40
2023-05-19T11:49:44.045Z,26.02
2023-05-19T11:52:11.716Z,27.68
2023-05-19T11:54:41.946Z,24.65
2023-05-19T11:57:09.757Z,25.23
2023-05-19T11:59:37.822Z,25.64
2023-05-19T12:02:16.818Z,24.55
2023-05-19T12:04:44.646Z,24.04
2023-05-19T12:07:12.411Z,23.92
2023-05-19T12:09:41.613Z,22.78
2023-05-19T12:12:09.524Z,23.35
2023-05-19T12:14:37.290Z,25.04
2023-05-19T12:17:11.287Z,24.56
2023-05-19T12:19:39.554Z,25.13
2023-05-19T12:22:07.571Z,24.65
2023-05-19T12:24:35.362Z,25.93
2023-05-19T12:27:10.936Z,26.53
2023-05-19T12:29:39.520Z,25.13
2023-05-19T12:32:08.009Z,25.01
2023-05-19T12:34:36.553Z,26.07
2023-05-19T12:37:04.638Z,25.01
2023-05-19T12:39:32.398Z,25.66
2023-05-19T12:42:03.808Z,23.64
2023-05-19T12:44:32.910Z,20.41
2023-05-19T12:47:01.789Z,20.09
2023-05-19T12:49:29.480Z,21.98
2023-05-19T12:51:57.168Z,22.91
2023-05-19T12:54:25.024Z,24.45
2023-05-19T12:56:52.822Z,25.11
2023-05-19T12:59:30.974Z,24.40
2023-05-19T13:02:10.234Z,25.03
2023-05-19T13:04:38.613Z,25.93
2023-05-19T13:07:09.130Z,25.03
2023-05-19T13:09:36.810Z,25.07
2023-05-19T13:12:06.565Z,23.31
2023-05-19T13:14:34.268Z,21.20
2023-05-19T13:17:02.161Z,20.79
2023-05-19T13:19:31.415Z,21.99
2023-05-19T13:21:59.172Z,20.82
2023-05-19T13:24:26.912Z,23.00
2023-05-19T13:26:55.909Z,23.81
2023-05-19T13:29:23.918Z,24.33
2023-05-19T13:31:51.728Z,25.45
2023-05-19T13:34:19.699Z,24.12
2023-05-19T13:36:49.989Z,24.78
2023-05-19T13:39:17.774Z,23.03
2023-05-19T13:41:45.559Z,22.77
2023-05-19T13:44:13.224Z,22.20
2023-05-19T13:46:45.670Z,22.73
2023-05-19T13:49:14.558Z,23.18
2023-05-19T13:51:45.009Z,23.72
2023-05-19T13:54:14.026Z,22.89
2023-05-19T13:56:43.092Z,21.81
2023-05-19T13:59:10.843Z,23.00
2023-05-19T14:01:38.578Z,20.11
2023-05-19T14:04:07.113Z,20.95
2023-05-19T14:06:34.887Z,23.15
2023-05-19T14:09:02.613Z,22.22
2023-05-19T14:11:31.622Z,20.93
2023-05-19T14:13:59.330Z,21.35
2023-05-19T14:16:28.697Z,23.01
2023-05-19T14:18:56.476Z,21.80
2023-05-19T14:21:24.214Z,21.38
2023-05-19T14:23:51.904Z,22.63
2023-05-19T14:26:19.721Z,21.49
2023-05-19T14:28:48.758Z,19.58
2023-05-19T14:31:16.471Z,22.30
2023-05-19T14:33:44.260Z,21.18
2023-05-19T14:36:12.017Z,19.99
2023-05-19T14:38:39.764Z,22.24
2023-05-19T14:41:09.995Z,22.18
2023-05-19T14:43:38.337Z,23.76
2023-05-19T14:46:07.501Z,22.72
2023-05-19T14:48:35.165Z,21.44
2023-05-19T14:51:02.824Z,20.38
2023-05-19T14:53:30.487Z,20.22
2023-05-19T14:55:58.175Z,21.30
2023-05-19T14:58:28.320Z,20.77
2023-05-19T15:00:58.404Z,20.77
2023-05-19T15:03:27.448Z,21.43
2023-05-19T15:05:55.212Z,22.36
2023-05-19T15:08:23.458Z,21.44
2023-05-19T15:10:51.415Z,23.75
2023-05-19T15:13:21.364Z,24.12
2023-05-19T15:15:49.065Z,23.36
2023-05-19T15:18:18.580Z,23.06
2023-05-19T15:20:47.663Z,23.30
2023-05-19T15:23:15.404Z,20.67
2023-05-19T15:25:43.056Z,20.56
2023-05-19T15:28:10.748Z,21.82
2023-05-19T15:30:38.639Z,22.59
2023-05-19T15:33:06.452Z,23.23
2023-05-19T15:35:34.123Z,24.49
2023-05-19T15:38:06.258Z,25.94
2023-05-19T15:40:34.430Z,23.49
2023-05-19T15:43:02.317Z,23.51
2023-05-19T15:45:30.181Z,25.45
2023-05-19T15:47:57.929Z,24.39
2023-05-19T15:50:26.752Z,25.28
2023-05-19T15:52:54.436Z,26.02
2023-05-19T15:55:24.717Z,25.22
2023-05-19T15:57:52.420Z,26.53
2023-05-19T16:00:20.420Z,24.45
2023-05-19T16:02:48.325Z,25.92
2023-05-19T16:05:16.688Z,26.85
2023-05-19T16:07:44.433Z,25.70
2023-05-19T16:10:12.126Z,24.61
2023-05-19T16:12:41.178Z,26.24
2023-05-19T16:15:12.017Z,24.93
2023-05-19T16:17:40.857Z,24.84
2023-05-19T16:20:09.227Z,26.85
2023-05-19T16:22:36.939Z,25.75
2023-05-19T16:25:04.944Z,26.98
2023-05-19T16:27:32.632Z,27.50
2023-05-19T16:30:02.548Z,26.03
2023-05-19T16:32:30.385Z,26.60
2023-05-19T16:34:58.093Z,25.39
2023-05-19T16:37:25.855Z,25.95
2023-05-19T16:39:53.521Z,26.19
2023-05-19T16:42:21.186Z,26.58
2023-05-19T16:44:48.954Z,25.37
2023-05-19T16:47:17.882Z,24.50
2023-05-19T16:49:45.555Z,24.74
2023-05-19T16:52:13.239Z,24.89
2023-05-19T16:54:40.861Z,24.45
2023-05-19T16:57:08.549Z,24.69
2023-05-19T16:59:36.246Z,25.54
2023-05-19T17:02:04.043Z,24.90
2023-05-19T17:04:33.147Z,24.96
2023-05-19T17:07:00.801Z,23.14
2023-05-19T17:09:28.483Z,26.59
2023-05-19T17:11:56.450Z,25.46
2023-05-19T17:14:24.108Z,28.90
2023-05-19T17:16:52.444Z,25.86
2023-05-19T17:19:20.191Z,27.40
2023-05-19T17:21:49.276Z,25.65
2023-05-19T17:24:16.957Z,25.40
2023-05-19T17:26:44.575Z,25.25
2023-05-19T17:29:14.282Z,26.77
2023-05-19T17:31:42.240Z,25.95
2023-05-19T17:34:09.906Z,25.52
2023-05-19T17:36:37.638Z,27.04
2023-05-19T17:39:06.669Z,26.26
2023-05-19T17:41:34.346Z,25.13
2023-05-19T17:44:01.961Z,26.24
2023-05-19T17:46:34.490Z,28.51
2023-05-19T17:49:02.260Z,27.41
2023-05-19T17:51:30.277Z,27.57
2023-05-19T17:53:58.250Z,27.64
2023-05-19T17:56:27.389Z,28.02
2023-05-19T17:58:55.370Z,26.56
2023-05-19T18:01:27.111Z,28.35
2023-05-19T18:03:55.253Z,29.58
2023-05-19T18:06:23.552Z,29.31
2023-05-19T18:08:51.789Z,27.83
2023-05-19T18:11:19.754Z,27.79
2023-05-19T18:13:48.763Z,30.33
2023-05-19T18:16:16.715Z,29.96
2023-05-19T18:18:46.996Z,28.35
2023-05-19T18:21:17.805Z,29.58
2023-05-19T18:23:45.647Z,29.16
2023-05-19T18:26:14.171Z,29.26
2023-05-19T18:28:41.852Z,30.54
2023-05-19T18:31:15.716Z,30.35
2023-05-19T18:33:43.523Z,31.51
2023-05-19T18:36:11.172Z,29.03
2023-05-19T18:38:39.001Z,28.90
2023-05-19T18:41:07.570Z,28.44
2023-05-19T18:43:35.375Z,28.33
2023-05-19T18:46:03.070Z,29.89
2023-05-19T18:48:34.153Z,32.99
2023-05-19T18:51:03.766Z,32.16
2023-05-19T18:53:32.195Z,32.72
2023-05-19T18:55:59.833Z,31.99
2023-05-19T18:58:27.435Z,31.55
2023-05-19T19:00:55.603Z,32.58
2023-05-19T19:03:23.531Z,34.73
2023-05-19T19:05:56.109Z,33.14
2023-05-19T19:08:23.814Z,35.57
2023-05-19T19:10:51.768Z,32.99
2023-05-19T19:13:19.554Z,32.59
2023-05-19T19:15:47.208Z,32.46
2023-05-19T19:18:14.876Z,33.87
2023-05-19T19:20:42.571Z,31.62
2023-05-19T19:23:12.128Z,31.41
2023-05-19T19:25:43.035Z,31.13
2023-05-19T19:28:11.279Z,31.65
2023-05-19T19:30:38.969Z,32.32
2023-05-19T19:33:07.049Z,31.76
2023-05-19T19:35:34.934Z,32.78
2023-05-19T19:38:05.679Z,33.33
2023-05-19T19:40:35.038Z,32.24
2023-05-19T19:43:02.994Z,33.23
2023-05-19T19:45:30.815Z,34.10
2023-05-19T19:47:58.509Z,33.78
2023-05-19T19:50:26.163Z,30.96
2023-05-19T19:52:54.105Z,30.73
2023-05-19T19:55:21.877Z,32.43
2023-05-19T19:57:51.295Z,31.39
2023-05-19T20:00:19.617Z,31.29
2023-05-19T20:03:03.553Z,33.78
2023-05-19T20:05:32.457Z,32.50
2023-05-19T20:08:00.262Z,33.01
2023-05-19T20:10:27.925Z,32.71
2023-05-19T20:12:58.792Z,33.40
2023-05-19T20:15:26.699Z,33.82
2023-05-19T20:17:54.449Z,33.51
2023-05-19T20:20:22.250Z,32.65
2023-05-19T20:22:49.994Z,34.53
2023-05-19T20:25:17.657Z,33.69
2023-05-19T20:27:48.653Z,33.58
2023-05-19T20:30:17.720Z,33.62
2023-05-19T20:32:47.769Z,33.65
2023-05-19T20:35:15.466Z,32.64
2023-05-19T20:37:43.137Z,34.77
2023-05-19T20:40:13.637Z,33.06
2023-05-19T20:42:41.552Z,35.24
2023-05-19T20:45:09.457Z,34.30
2023-05-19T20:47:38.656Z,33.01
2023-05-19T20:50:06.889Z,33.11
2023-05-19T20:52:34.570Z,33.31
2023-05-19T20:55:02.269Z,36.13
2023-05-19T20:57:30.002Z,33.77
2023-05-19T20:59:57.666Z,33.58
2023-05-19T21:02:25.396Z,35.41
2023-05-19T21:04:54.458Z,34.46
2023-05-19T21:07:22.469Z,33.39
2023-05-19T21:09:51.535Z,34.82
2023-05-19T21:12:23.585Z,35.79
2023-05-19T21:14:51.254Z,37.80
2023-05-19T21:17:21.125Z,37.13
2023-05-19T21:19:50.570Z,35.59
2023-05-19T21:22:19.892Z,37.80
2023-05-19T21:24:47.571Z,36.71
2023-05-19T21:27:15.254Z,35.88
2023-05-19T21:29:46.014Z,36.88
2023-05-19T21:32:14.042Z,36.16
2023-05-19T21:34:41.718Z,36.54
2023-05-19T21:37:09.542Z,36.83
2023-05-19T21:39:38.661Z,35.63
2023-05-19T21:42:06.807Z,36.15
2023-05-19T21:44:34.461Z,34.97
2023-05-19T21:47:02.179Z,36.90
2023-05-19T21:49:29.893Z,37.26
2023-05-19T21:51:57.566Z,37.10
2023-05-19T21:54:25.236Z,37.49
2023-05-19T21:56:54.318Z,37.41
2023-05-19T21:59:23.212Z,36.58
2023-05-19T22:01:51.054Z,37.89
2023-05-19T22:04:18.969Z,38.54
2023-05-19T22:06:46.682Z,37.79
2023-05-19T22:09:14.371Z,38.79
2023-05-19T22:11:42.015Z,39.89
2023-05-19T22:14:11.119Z,37.88
2023-05-19T22:16:38.853Z,37.76
2023-05-19T22:19:06.667Z,37.76
2023-05-19T22:21:34.367Z,37.23
2023-05-19T22:24:02.057Z,38.64
2023-05-19T22:26:29.846Z,38.97
2023-05-19T22:28:57.674Z,39.52
2023-05-19T22:31:26.715Z,38.45
2023-05-19T22:33:54.605Z,38.53
2023-05-19T22:36:22.313Z,42.96
2023-05-19T22:38:50.025Z,40.55
2023-05-19T22:41:17.690Z,39.61
2023-05-19T22:43:45.339Z,39.85
2023-05-19T22:46:13.296Z,39.00
2023-05-19T22:48:42.264Z,40.81
2023-05-19T22:51:09.885Z,44.41
2023-05-19T22:53:37.548Z,43.14
2023-05-19T22:56:05.468Z,41.60
2023-05-19T22:58:33.172Z,42.66
2023-05-19T23:01:01.085Z,43.40
2023-05-19T23:03:28.755Z,45.36
2023-05-19T23:05:57.845Z,42.57
2023-05-19T23:08:25.477Z,40.30
2023-05-19T23:10:53.147Z,41.01
2023-05-19T23:13:20.806Z,40.75
2023-05-19T23:15:49.673Z,44.48
2023-05-19T23:18:17.320Z,43.43
2023-05-19T23:20:44.976Z,44.50
2023-05-19T23:23:13.963Z,41.16
2023-05-19T23:25:41.658Z,41.92
2023-05-19T23:28:10.406Z,40.41
2023-05-19T23:30:38.359Z,41.16
2023-05-19T23:33:06.080Z,41.41
2023-05-19T23:35:34.012Z,40.59
2023-05-19T23:38:01.820Z,43.32
2023-05-19T23:40:30.901Z,44.41
2023-05-19T23:42:58.685Z,44.11
2023-05-19T23:45:26.391Z,46.34
2023-05-19T23:47:54.088Z,46.74
2023-05-19T23:50:22.200Z,45.66
2023-05-19T23:52:49.821Z,47.18
2023-05-19T23:55:18.824Z,44.95
2023-05-19T23:57:47.834Z,44.59
